Time;durP1;ratioP1;P1;durP2;ratioP2;P2;SDS_P1;SDS_P2;PMS_P1;PMS_P2;Temp;Humidity;BMP_temperature;BMP_pressure;BME280_temperature;BME280_humidity;BME280_pressure;Samples;Min_cycle;Max_cycle;Signal;HPM_P1;HPM_P2
2023/04/13 00:00:09;;;;;;;;;;;;;;;22.10;30.44;96924.41;4961600;28;1076;-80
2023/04/13 00:02:38;;;;;;;;;;;;;;;21.96;30.46;96925.06;4969208;28;1002;-81
2023/04/13 00:05:08;;;;;;;;;;;;;;;21.69;31.05;96928.69;5018089;28;1023;-81
2023/04/13 00:07:37;;;;;;;;;;;;;;;21.74;30.71;96926.00;5001726;28;1151;-81
2023/04/13 00:10:07;;;;;;;;;;;;;;;21.59;31.07;96922.25;5017347;28;1003;-81
2023/04/13 00:12:33;;;;;;;;;;;;;;;21.74;30.96;96925.22;4984670;28;935;-81
2023/04/13 00:14:59;;;;;;;;;;;;;;;22.14;31.02;96930.75;5017697;28;909;-80
2023/04/13 00:17:25;;;;;;;;;;;;;;;22.27;30.51;96928.50;5017826;28;1894;-81
2023/04/13 00:19:52;;;;;;;;;;;;;;;22.07;30.71;96937.50;4984443;28;946;-80
2023/04/13 00:22:18;;;;;;;;;;;;;;;21.91;30.54;96939.84;5017624;28;887;-81
2023/04/13 00:24:44;;;;;;;;;;;;;;;21.65;30.92;96947.88;5016897;28;937;-80
2023/04/13 00:27:10;;;;;;;;;;;;;;;21.46;31.03;96944.25;5018730;28;1031;-80
2023/04/13 00:29:36;;;;;;;;;;;;;;;21.87;30.73;96944.91;5017330;28;966;-81
2023/04/13 00:32:03;;;;;;;;;;;;;;;22.38;30.34;96944.22;5018614;28;872;-81
2023/04/13 00:34:29;;;;;;;;;;;;;;;22.14;30.54;96947.75;5000747;28;981;-81
2023/04/13 00:37:00;;;;;;;;;;;;;;;22.22;30.60;96937.66;5017294;28;1965;-81
2023/04/13 00:39:26;;;;;;;;;;;;;;;21.97;30.58;96949.31;5017301;28;935;-81
2023/04/13 00:41:53;;;;;;;;;;;;;;;21.70;30.67;96947.25;5000937;28;1007;-81
2023/04/13 00:44:18;;;;;;;;;;;;;;;21.54;31.05;96949.13;5017942;28;930;-81
2023/04/13 00:46:46;;;;;;;;;;;;;;;21.85;30.90;96953.84;5017677;28;844;-81
2023/04/13 00:49:12;;;;;;;;;;;;;;;22.07;30.70;96948.84;4980057;28;1242;-81
2023/04/13 00:51:38;;;;;;;;;;;;;;;22.14;30.70;96952.63;4964155;28;1035;-80
2023/04/13 00:54:04;;;;;;;;;;;;;;;21.91;30.57;96946.31;5015542;28;984;-81
2023/04/13 00:56:29;;;;;;;;;;;;;;;21.85;30.38;96957.47;4983579;28;1195;-81
2023/04/13 00:58:56;;;;;;;;;;;;;;;21.75;30.28;96950.22;4999378;28;1910;-81
2023/04/13 01:01:22;;;;;;;;;;;;;;;21.76;30.38;96957.50;5000587;28;953;-80
2023/04/13 01:03:48;;;;;;;;;;;;;;;21.75;30.67;96955.91;4982903;28;1103;-80
2023/04/13 01:06:19;;;;;;;;;;;;;;;21.71;30.77;96963.78;4983379;28;1256;-81
2023/04/13 01:08:47;;;;;;;;;;;;;;;22.23;30.50;96969.63;4982693;28;1333;-80
2023/04/13 01:11:17;;;;;;;;;;;;;;;22.27;30.27;96965.34;4983312;28;1233;-80
2023/04/13 01:13:47;;;;;;;;;;;;;;;22.12;30.68;96977.78;4983097;28;901;-80
2023/04/13 01:16:23;;;;;;;;;;;;;;;22.01;30.57;96986.75;4957921;29;1047;-81
2023/04/13 01:18:49;;;;;;;;;;;;;;;21.81;30.45;96982.34;4902542;29;1903;-79
2023/04/13 01:21:18;;;;;;;;;;;;;;;21.60;30.88;96988.91;4903664;29;1208;-81
2023/04/13 01:24:03;;;;;;;;;;;;;;;21.81;30.52;96976.69;4903081;29;1205;-81
2023/04/13 01:26:34;;;;;;;;;;;;;;;22.03;30.70;96970.06;4911772;29;1178;-81
2023/04/13 01:28:59;;;;;;;;;;;;;;;22.17;30.26;96968.66;4906358;29;899;-81
2023/04/13 01:31:25;;;;;;;;;;;;;;;22.19;30.14;96978.28;4890507;29;1280;-81
2023/04/13 01:33:51;;;;;;;;;;;;;;;22.04;29.99;96982.97;4922215;29;1004;-81
2023/04/13 01:36:17;;;;;;;;;;;;;;;21.75;30.11;96984.22;4884291;29;1114;-80
2023/04/13 01:38:43;;;;;;;;;;;;;;;21.74;30.22;96985.47;4902573;29;1980;-80
2023/04/13 01:41:10;;;;;;;;;;;;;;;21.93;30.58;96996.81;4919101;29;1391;-80
2023/04/13 01:43:42;;;;;;;;;;;;;;;22.27;29.98;96988.00;4918304;29;1119;-81
2023/04/13 01:46:12;;;;;;;;;;;;;;;22.39;29.89;96996.84;4919062;29;1090;-80
2023/04/13 01:49:14;;;;;;;;;;;;;;;21.98;30.46;96996.19;4892007;29;1008;-80
2023/04/13 01:52:05;;;;;;;;;;;;;;;21.77;30.33;97000.75;4944281;29;1540;-80
2023/04/13 01:54:33;;;;;;;;;;;;;;;21.91;30.03;96996.50;4940968;29;1288;-81
2023/04/13 01:56:58;;;;;;;;;;;;;;;21.81;30.38;96993.69;4909255;29;1243;-80
2023/04/13 01:59:25;;;;;;;;;;;;;;;21.76;30.49;97007.66;4908973;29;1986;-81
2023/04/13 02:01:50;;;;;;;;;;;;;;;21.45;31.24;96999.25;4940575;29;977;-80
2023/04/13 02:04:19;;;;;;;;;;;;;;;21.94;30.96;97004.84;4924754;29;1297;-80
2023/04/13 02:06:45;;;;;;;;;;;;;;;22.53;30.41;97016.00;4940339;29;1276;-81
2023/04/13 02:09:11;;;;;;;;;;;;;;;22.88;29.65;97011.53;4947794;28;1474;-81
2023/04/13 02:11:37;;;;;;;;;;;;;;;22.12;30.73;97026.75;4922053;29;998;-81
2023/04/13 02:14:04;;;;;;;;;;;;;;;21.87;30.84;97035.53;4922121;29;1260;-81
2023/04/13 02:16:30;;;;;;;;;;;;;;;21.85;30.83;97028.28;4938393;29;1148;-81
2023/04/13 02:18:57;;;;;;;;;;;;;;;21.50;31.57;97035.44;4902747;29;1903;-81
2023/04/13 02:21:24;;;;;;;;;;;;;;;21.92;31.52;97038.53;4918386;29;1117;-80
2023/04/13 02:23:51;;;;;;;;;;;;;;;22.11;31.11;97022.34;4906083;29;1056;-80
2023/04/13 02:26:17;;;;;;;;;;;;;;;22.16;31.38;97030.22;4906295;29;1126;-80
2023/04/13 02:28:44;;;;;;;;;;;;;;;22.17;30.66;97031.00;4890487;29;1106;-80
2023/04/13 02:31:15;;;;;;;;;;;;;;;21.86;31.07;97034.72;4921882;29;1311;-81
2023/04/13 02:33:42;;;;;;;;;;;;;;;21.72;31.17;97041.00;4921132;29;1031;-81
2023/04/13 02:36:08;;;;;;;;;;;;;;;22.06;30.33;97034.28;4906307;29;1197;-81
2023/04/13 02:38:36;;;;;;;;;;;;;;;22.17;30.92;97036.66;4922058;29;1915;-80
2023/04/13 02:41:08;;;;;;;;;;;;;;;22.39;30.30;97036.50;4902766;29;1074;-80
2023/04/13 02:43:34;;;;;;;;;;;;;;;22.27;30.55;97041.84;4886564;29;1020;-80
2023/04/13 02:46:01;;;;;;;;;;;;;;;21.82;31.05;97046.22;4887749;29;1129;-81
2023/04/13 02:48:32;;;;;;;;;;;;;;;21.79;30.55;97035.03;4871710;29;1241;-80
2023/04/13 02:50:58;;;;;;;;;;;;;;;21.69;30.49;97042.72;4903122;29;1209;-81
2023/04/13 02:53:29;;;;;;;;;;;;;;;21.95;30.36;97046.06;4936824;29;1524;-80
2023/04/13 02:55:59;;;;;;;;;;;;;;;21.57;31.19;97040.81;4905373;29;1537;-80
2023/04/13 02:58:25;;;;;;;;;;;;;;;21.87;30.67;97053.31;4904890;29;1966;-80
2023/04/13 03:00:57;;;;;;;;;;;;;;;21.65;30.85;97052.63;4920877;29;1273;-81
2023/04/13 03:03:23;;;;;;;;;;;;;;;22.14;30.93;97041.25;4927431;29;1168;-80
2023/04/13 03:05:50;;;;;;;;;;;;;;;22.28;30.14;97054.78;4943553;29;1036;-81
2023/04/13 03:08:19;;;;;;;;;;;;;;;22.36;30.19;97050.34;4927525;29;1588;-80
2023/04/13 03:10:59;;;;;;;;;;;;;;;21.98;30.48;97052.84;4905348;29;1375;-80
2023/04/13 03:13:26;;;;;;;;;;;;;;;21.81;30.49;97055.97;4924084;29;1303;-81
2023/04/13 03:15:56;;;;;;;;;;;;;;;21.74;30.58;97059.09;4940401;29;1235;-81
2023/04/13 03:18:24;;;;;;;;;;;;;;;22.47;30.13;97054.75;4939654;29;1914;-80
2023/04/13 03:20:50;;;;;;;;;;;;;;;22.65;29.36;97049.06;4923451;29;1401;-81
2023/04/13 03:23:18;;;;;;;;;;;;;;;22.40;30.03;97040.91;4924059;29;1321;-81
2023/04/13 03:25:44;;;;;;;;;;;;;;;22.06;29.95;97045.59;4939799;29;1212;-81
2023/04/13 03:28:10;;;;;;;;;;;;;;;21.82;30.13;97063.22;4923993;29;1220;-81
2023/04/13 03:30:40;;;;;;;;;;;;;;;21.91;29.73;97065.25;4909448;29;1233;-79
2023/04/13 03:33:06;;;;;;;;;;;;;;;21.75;30.49;97074.03;4908422;29;976;-81
2023/04/13 03:35:35;;;;;;;;;;;;;;;21.85;30.25;97079.25;4924177;29;952;-80
2023/04/13 03:38:03;;;;;;;;;;;;;;;21.46;31.18;97082.94;4922047;29;1899;-80
2023/04/13 03:40:37;;;;;;;;;;;;;;;21.71;30.53;97081.88;4928143;29;1220;-80
2023/04/13 03:43:04;;;;;;;;;;;;;;;22.05;30.66;97086.53;4980245;28;1390;-80
2023/04/13 03:45:33;;;;;;;;;;;;;;;22.38;30.04;97091.59;4965592;28;1195;-81
2023/04/13 03:48:01;;;;;;;;;;;;;;;22.39;30.12;97094.00;4949689;28;1268;-80
2023/04/13 03:50:27;;;;;;;;;;;;;;;22.14;30.48;97100.72;4964902;28;1118;-80
2023/04/13 03:52:54;;;;;;;;;;;;;;;21.92;30.74;97105.72;4965156;28;1330;-80
2023/04/13 03:55:21;;;;;;;;;;;;;;;21.91;30.30;97109.78;4965375;28;1171;-81
2023/04/13 03:57:49;;;;;;;;;;;;;;;21.61;31.07;97109.41;4984536;28;1899;-80
2023/04/13 04:00:19;;;;;;;;;;;;;;;21.63;31.04;97118.19;4985642;28;1378;-80
2023/04/13 04:03:02;;;;;;;;;;;;;;;21.88;30.91;97122.06;4973477;28;1330;-80
2023/04/13 04:05:36;;;;;;;;;;;;;;;22.28;30.48;97117.13;4986080;28;1255;-80
2023/04/13 04:08:03;;;;;;;;;;;;;;;22.68;29.71;97121.06;4985033;28;1264;-80
2023/04/13 04:10:29;;;;;;;;;;;;;;;22.32;30.06;97129.06;4958159;29;1231;-80
2023/04/13 04:12:57;;;;;;;;;;;;;;;22.25;30.01;97129.38;4973864;28;1219;-81
2023/04/13 04:15:23;;;;;;;;;;;;;;;22.03;30.32;97140.03;4973970;28;1351;-80
2023/04/13 04:17:56;;;;;;;;;;;;;;;21.71;30.63;97136.50;4941130;29;1903;-80
2023/04/13 04:20:21;;;;;;;;;;;;;;;21.87;30.58;97134.66;4926077;29;1236;-80
2023/04/13 04:22:49;;;;;;;;;;;;;;;21.82;30.67;97134.00;4941965;29;1109;-80
2023/04/13 04:25:20;;;;;;;;;;;;;;;21.59;31.25;97140.19;4910148;29;1164;-80
2023/04/13 04:27:49;;;;;;;;;;;;;;;21.54;31.05;97137.97;4942579;29;1339;-80
2023/04/13 04:30:17;;;;;;;;;;;;;;;21.55;31.12;97151.69;4925625;29;1217;-81
2023/04/13 04:32:43;;;;;;;;;;;;;;;21.51;31.15;97150.25;4925932;29;1135;-81
2023/04/13 04:35:13;;;;;;;;;;;;;;;22.21;30.60;97161.97;4938237;29;1232;-80
2023/04/13 04:37:48;;;;;;;;;;;;;;;22.34;29.98;97171.91;4920190;29;1911;-80
2023/04/13 04:40:16;;;;;;;;;;;;;;;22.10;30.41;97168.06;4922679;28;1102;-80
2023/04/13 04:42:42;;;;;;;;;;;;;;;21.99;30.18;97167.72;4960545;28;1133;-80
2023/04/13 04:45:15;;;;;;;;;;;;;;;21.67;30.81;97169.81;4961536;28;1172;-80
2023/04/13 04:47:44;;;;;;;;;;;;;;;21.91;30.41;97174.91;4962176;28;1267;-80
2023/04/13 04:50:16;;;;;;;;;;;;;;;21.95;30.22;97178.41;4964530;28;1217;-80
2023/04/13 04:52:44;;;;;;;;;;;;;;;21.60;30.96;97187.06;4964215;28;1112;-81
2023/04/13 04:55:13;;;;;;;;;;;;;;;21.49;31.04;97187.50;4948411;28;1186;-80
2023/04/13 04:57:41;;;;;;;;;;;;;;;21.29;31.58;97189.84;4963843;28;1895;-80
2023/04/13 05:00:17;;;;;;;;;;;;;;;22.29;30.40;97180.25;4979811;28;1144;-80
2023/04/13 05:02:56;;;;;;;;;;;;;;;22.61;29.88;97181.72;4923623;29;1303;-81
2023/04/13 05:05:23;;;;;;;;;;;;;;;22.41;29.81;97170.81;4940618;29;1258;-81
2023/04/13 05:07:49;;;;;;;;;;;;;;;21.81;30.45;97183.41;4924945;29;1221;-80
2023/04/13 05:10:15;;;;;;;;;;;;;;;21.84;30.34;97190.94;4909200;29;1266;-80
2023/04/13 05:12:48;;;;;;;;;;;;;;;21.94;30.21;97191.00;4910998;29;1094;-80
2023/04/13 05:15:13;;;;;;;;;;;;;;;21.71;30.87;97187.47;4940862;29;1108;-80
2023/04/13 05:17:40;;;;;;;;;;;;;;;22.28;30.43;97190.81;4941101;29;1902;-80
2023/04/13 05:20:06;;;;;;;;;;;;;;;22.42;30.31;97182.94;4940880;29;1292;-80
2023/04/13 05:22:44;;;;;;;;;;;;;;;22.55;29.65;97187.22;4912599;29;1237;-81
2023/04/13 05:25:10;;;;;;;;;;;;;;;21.96;30.41;97188.47;4941286;29;960;-80
2023/04/13 05:27:36;;;;;;;;;;;;;;;21.73;30.15;97189.81;4925115;29;1280;-81
2023/04/13 05:30:04;;;;;;;;;;;;;;;21.62;30.32;97187.41;4899034;29;1165;-80
2023/04/13 05:32:32;;;;;;;;;;;;;;;21.57;30.48;97194.47;4883909;29;1339;-80
2023/04/13 05:34:58;;;;;;;;;;;;;;;21.53;30.70;97190.19;4886975;29;1254;-80
2023/04/13 05:37:26;;;;;;;;;;;;;;;21.68;30.74;97194.03;4903082;29;1892;-80
2023/04/13 05:39:52;;;;;;;;;;;;;;;21.62;30.65;97187.41;4935282;28;1112;-80
2023/04/13 05:42:23;;;;;;;;;;;;;;;21.83;30.48;97182.94;4940700;28;1090;-80
2023/04/13 05:44:49;;;;;;;;;;;;;;;21.74;30.40;97197.84;4956049;28;1116;-79
2023/04/13 05:47:17;;;;;;;;;;;;;;;21.58;30.90;97189.59;4956868;28;1141;-81
2023/04/13 05:49:45;;;;;;;;;;;;;;;21.57;31.02;97199.34;4956300;28;1405;-80
2023/04/13 05:52:11;;;;;;;;;;;;;;;21.78;30.66;97198.50;4956882;28;1149;-79
2023/04/13 05:54:43;;;;;;;;;;;;;;;22.38;30.51;97190.81;4941072;29;975;-80
2023/04/13 05:57:09;;;;;;;;;;;;;;;22.74;30.05;97204.22;4956701;28;1089;-80
2023/04/13 05:59:39;;;;;;;;;;;;;;;22.35;30.45;97199.00;4956356;28;1160;-80
2023/04/13 06:02:05;;;;;;;;;;;;;;;21.75;31.11;97193.75;4958450;28;1441;-79
2023/04/13 06:04:32;;;;;;;;;;;;;;;21.62;30.97;97190.25;4943621;28;1263;-79
2023/04/13 06:06:58;;;;;;;;;;;;;;;21.62;30.86;97190.25;4953592;28;1269;-80
2023/04/13 06:09:24;;;;;;;;;;;;;;;21.67;30.71;97198.13;4959445;28;1327;-80
2023/04/13 06:11:49;;;;;;;;;;;;;;;22.52;30.32;97201.53;4975780;28;1324;-80
2023/04/13 06:14:17;;;;;;;;;;;;;;;22.49;30.20;97199.66;4975836;28;1012;-80
2023/04/13 06:16:42;;;;;;;;;;;;;;;22.75;29.58;97194.50;4937178;29;1121;-80
2023/04/13 06:19:08;;;;;;;;;;;;;;;22.09;30.22;97200.47;4889801;29;1903;-80
2023/04/13 06:21:33;;;;;;;;;;;;;;;21.87;30.47;97213.94;4905546;29;1153;-79
2023/04/13 06:23:59;;;;;;;;;;;;;;;21.79;30.48;97217.03;4905360;29;1019;-80
2023/04/13 06:26:30;;;;;;;;;;;;;;;21.99;31.06;97221.53;4891080;29;1244;-81
2023/04/13 06:28:56;;;;;;;;;;;;;;;22.41;30.48;97215.38;4920810;29;1231;-80
2023/04/13 06:31:26;;;;;;;;;;;;;;;22.49;30.22;97205.34;4921473;29;1105;-81
2023/04/13 06:33:52;;;;;;;;;;;;;;;22.29;30.51;97215.06;4905677;29;1288;-80
2023/04/13 06:36:24;;;;;;;;;;;;;;;22.17;30.26;97221.63;4906086;29;1412;-81
2023/04/13 06:38:51;;;;;;;;;;;;;;;21.87;30.12;97216.78;4920895;29;1911;-80
2023/04/13 06:41:18;;;;;;;;;;;;;;;21.67;30.25;97220.00;4955340;28;1334;-80
2023/04/13 06:43:46;;;;;;;;;;;;;;;21.83;29.84;97234.69;4943394;28;1149;-80
2023/04/13 06:46:20;;;;;;;;;;;;;;;21.70;30.02;97242.47;4958910;28;1386;-81
2023/04/13 06:48:49;;;;;;;;;;;;;;;21.68;30.17;97233.69;4977709;28;1298;-80
2023/04/13 06:51:18;;;;;;;;;;;;;;;21.57;30.79;97233.31;4996387;28;1147;-81
2023/04/13 06:53:44;;;;;;;;;;;;;;;21.38;30.85;97234.44;4979442;28;1310;-81
2023/04/13 06:56:09;;;;;;;;;;;;;;;22.15;30.59;97238.31;4981910;28;1120;-81
2023/04/13 06:58:35;;;;;;;;;;;;;;;22.32;30.36;97236.78;4965437;28;1960;-80
2023/04/13 07:01:01;;;;;;;;;;;;;;;22.29;30.02;97249.06;4966224;28;1156;-80
2023/04/13 07:03:30;;;;;;;;;;;;;;;22.15;30.43;97254.53;4965806;28;1415;-81
2023/04/13 07:05:56;;;;;;;;;;;;;;;22.14;30.35;97247.28;4966123;28;1124;-81
2023/04/13 07:08:22;;;;;;;;;;;;;;;21.82;30.33;97250.13;4958908;29;1055;-81
2023/04/13 07:10:51;;;;;;;;;;;;;;;21.71;30.36;97255.41;4943186;29;1211;-80
2023/04/13 07:13:25;;;;;;;;;;;;;;;20.88;30.39;97114.66;4942628;29;1437;-81
2023/04/13 07:15:52;;;;;;;;;;;;;;;21.71;30.33;97246.91;4959441;29;1326;-80
2023/04/13 07:18:18;;;;;;;;;;;;;;;21.67;30.61;97253.97;4942832;29;1899;-81
2023/04/13 07:20:44;;;;;;;;;;;;;;;21.55;30.99;97247.13;4959151;29;1279;-80
2023/04/13 07:23:11;;;;;;;;;;;;;;;22.14;30.53;97247.28;4942477;29;1225;-80
2023/04/13 07:25:37;;;;;;;;;;;;;;;22.22;30.03;97255.00;4886347;29;1320;-81
2023/04/13 07:28:06;;;;;;;;;;;;;;;21.94;30.43;97261.81;4900803;29;1534;-80
2023/04/13 07:30:31;;;;;;;;;;;;;;;21.63;30.83;97259.75;4886091;29;1202;-80
2023/04/13 07:32:58;;;;;;;;;;;;;;;21.65;30.25;97250.78;4921893;29;1425;-80
2023/04/13 07:35:24;;;;;;;;;;;;;;;21.38;31.06;97255.03;4904897;29;1383;-80
2023/04/13 07:37:50;;;;;;;;;;;;;;;21.66;31.02;97258.84;4904097;29;1961;-80
2023/04/13 07:40:17;;;;;;;;;;;;;;;22.12;30.07;97256.22;4921172;29;1262;-80
2023/04/13 07:42:48;;;;;;;;;;;;;;;22.36;29.97;97248.75;4924267;29;1144;-79
2023/04/13 07:45:14;;;;;;;;;;;;;;;22.10;30.15;97256.69;4901358;29;1161;-81
2023/04/13 07:47:40;;;;;;;;;;;;;;;21.92;30.27;97247.31;4901485;29;1224;-78
2023/04/13 07:50:08;;;;;;;;;;;;;;;21.60;30.62;97249.34;4901676;29;1090;-80
2023/04/13 07:52:35;;;;;;;;;;;;;;;21.61;30.55;97258.66;4901284;29;1338;-81
2023/04/13 07:55:01;;;;;;;;;;;;;;;21.70;30.69;97259.47;4885414;29;1189;-80
2023/04/13 07:57:29;;;;;;;;;;;;;;;22.46;29.53;97251.63;4936611;29;1977;-81
2023/04/13 08:00:00;;;;;;;;;;;;;;;22.40;29.70;97253.50;4923153;29;1159;-80
2023/04/13 08:02:26;;;;;;;;;;;;;;;21.96;30.05;97247.94;4923212;29;1191;-80
2023/04/13 08:04:54;;;;;;;;;;;;;;;21.82;30.28;97250.13;4885723;29;1126;-80
2023/04/13 08:07:26;;;;;;;;;;;;;;;21.81;30.00;97256.22;4885653;29;1400;-81
2023/04/13 08:09:52;;;;;;;;;;;;;;;21.78;29.89;97243.78;4817828;29;1101;-80
2023/04/13 08:12:18;;;;;;;;;;;;;;;21.66;29.84;97252.38;4864127;29;1519;-80
2023/04/13 08:14:45;;;;;;;;;;;;;;;22.16;29.58;97251.22;4863269;29;1350;-80
2023/04/13 08:17:11;;;;;;;;;;;;;;;22.36;29.23;97248.75;4848206;29;1364;-81
2023/04/13 08:19:39;;;;;;;;;;;;;;;22.01;29.64;97244.50;4847843;29;1880;-81
2023/04/13 08:22:08;;;;;;;;;;;;;;;21.78;29.69;97246.63;4868920;29;1030;-80
2023/04/13 08:24:34;;;;;;;;;;;;;;;21.59;30.14;97244.94;4882304;29;1141;-80
2023/04/13 08:27:00;;;;;;;;;;;;;;;21.50;30.04;97239.22;4866563;29;1141;-80
2023/04/13 08:29:26;;;;;;;;;;;;;;;21.79;29.57;97251.03;4916044;29;1221;-80
2023/04/13 08:31:52;;;;;;;;;;;;;;;21.97;29.44;97243.88;4903897;29;1350;-81
2023/04/13 08:34:19;;;;;;;;;;;;;;;22.10;29.03;97242.53;4919452;29;1304;-81
2023/04/13 08:36:45;;;;;;;;;;;;;;;22.02;29.22;97243.25;4939490;29;1112;-80
2023/04/13 08:39:12;;;;;;;;;;;;;;;21.90;29.04;97238.50;4954352;29;1914;-80
2023/04/13 08:41:43;;;;;;;;;;;;;;;21.68;29.15;97239.34;4948012;28;1110;-80
2023/04/13 08:44:10;;;;;;;;;;;;;;;21.63;29.27;97228.63;4984593;28;1113;-80
2023/04/13 08:46:45;;;;;;;;;;;;;;;21.62;29.71;97235.53;5016958;28;946;-80
2023/04/13 08:49:12;;;;;;;;;;;;;;;21.92;29.26;97224.66;4968419;28;1212;-80
2023/04/13 08:51:58;;;;;;;;;;;;;;;22.07;28.84;97236.97;4989381;28;984;-80
2023/04/13 08:54:27;;;;;;;;;;;;;;;22.30;28.14;97227.97;4960431;28;1238;-80
2023/04/13 08:56:53;;;;;;;;;;;;;;;22.04;28.58;97227.38;4957042;29;1245;-80
2023/04/13 08:59:21;;;;;;;;;;;;;;;21.67;28.77;97229.28;4941357;29;1992;-80
2023/04/13 09:01:47;;;;;;;;;;;;;;;21.28;29.59;97231.50;4941290;29;1109;-79
2023/04/13 09:04:16;;;;;;;;;;;;;;;21.73;29.34;97235.13;4925444;29;1462;-81
2023/04/13 09:06:43;;;;;;;;;;;;;;;22.01;28.55;97228.31;4934724;29;1223;-80
2023/04/13 09:09:14;;;;;;;;;;;;;;;22.17;28.27;97230.13;4887334;29;1252;-79
2023/04/13 09:11:41;;;;;;;;;;;;;;;21.95;28.40;97223.72;4903194;29;1103;-80
2023/04/13 09:14:07;;;;;;;;;;;;;;;21.82;28.62;97227.47;4903050;29;1233;-80
2023/04/13 09:16:40;;;;;;;;;;;;;;;21.32;29.03;97228.59;4897092;29;1266;-80
2023/04/13 09:19:12;;;;;;;;;;;;;;;21.24;29.55;97222.41;4895573;29;1993;-80
2023/04/13 09:21:41;;;;;;;;;;;;;;;21.69;28.83;97217.47;4866111;29;1438;-80
2023/04/13 09:24:07;;;;;;;;;;;;;;;21.91;28.64;97211.75;4881219;29;1457;-80
2023/04/13 09:26:40;;;;;;;;;;;;;;;21.91;28.36;97214.56;4918009;29;1020;-80
2023/04/13 09:29:07;;;;;;;;;;;;;;;21.65;28.59;97211.94;4902793;29;1088;-80
2023/04/13 09:31:33;;;;;;;;;;;;;;;21.61;28.59;97216.97;4903387;29;1210;-80
2023/04/13 09:33:59;;;;;;;;;;;;;;;21.39;28.92;97210.53;4902924;29;1194;-80
2023/04/13 09:36:24;;;;;;;;;;;;;;;21.56;28.48;97220.41;4903203;29;1401;-80
2023/04/13 09:38:51;;;;;;;;;;;;;;;21.52;29.05;97214.88;4956113;29;1903;-80
2023/04/13 09:41:26;;;;;;;;;;;;;;;21.97;28.46;97209.91;4972896;28;927;-80
2023/04/13 09:43:52;;;;;;;;;;;;;;;22.08;28.03;97204.56;4956433;29;1112;-80
2023/04/13 09:46:17;;;;;;;;;;;;;;;21.72;28.60;97205.22;4972917;28;960;-80
2023/04/13 09:48:44;;;;;;;;;;;;;;;21.45;28.76;97217.19;5015843;28;1143;-80
2023/04/13 09:51:10;;;;;;;;;;;;;;;21.82;28.04;97210.47;4983200;28;958;-80
2023/04/13 09:53:42;;;;;;;;;;;;;;;21.24;28.94;97205.41;5016542;28;1019;-80
2023/04/13 09:56:07;;;;;;;;;;;;;;;21.75;28.41;97205.06;4983460;28;1184;-80
2023/04/13 09:58:36;;;;;;;;;;;;;;;22.03;28.22;97214.47;4999216;28;1907;-80
2023/04/13 10:01:01;;;;;;;;;;;;;;;21.99;27.97;97213.81;5016241;28;913;-80
2023/04/13 10:03:27;;;;;;;;;;;;;;;22.04;27.89;97207.56;4983275;28;1105;-79
2023/04/13 10:05:53;;;;;;;;;;;;;;;21.89;28.02;97214.25;4983401;28;1112;-80
2023/04/13 10:08:19;;;;;;;;;;;;;;;21.46;28.66;97218.78;4975281;28;989;-80
2023/04/13 10:10:45;;;;;;;;;;;;;;;21.47;28.72;97223.19;4960217;28;965;-80
2023/04/13 10:13:14;;;;;;;;;;;;;;;21.89;28.37;97214.25;4959358;28;1260;-80
2023/04/13 10:15:55;;;;;;;;;;;;;;;22.01;28.10;97210.50;4946473;28;1976;-79
2023/04/13 10:18:20;;;;;;;;;;;;;;;21.79;28.34;97213.44;4975154;28;1981;-79
2023/04/13 10:20:46;;;;;;;;;;;;;;;21.69;28.24;97201.28;4994009;28;1242;-81
2023/04/13 10:23:12;;;;;;;;;;;;;;;21.53;28.67;97221.31;4976784;28;1259;-80
2023/04/13 10:25:47;;;;;;;;;;;;;;;21.58;28.41;97217.88;4991455;28;1184;-80
2023/04/13 10:28:13;;;;;;;;;;;;;;;21.45;28.36;97214.34;4977185;28;1289;-80
2023/04/13 10:30:47;;;;;;;;;;;;;;;21.91;28.34;97214.56;4980370;28;1124;-81
2023/04/13 10:33:12;;;;;;;;;;;;;;;21.97;27.86;97215.56;4961342;28;1191;-81
2023/04/13 10:35:39;;;;;;;;;;;;;;;21.98;27.76;97219.97;4946153;28;1280;-81
2023/04/13 10:38:07;;;;;;;;;;;;;;;21.95;28.08;97212.38;4945748;28;1906;-82
2023/04/13 10:40:42;;;;;;;;;;;;;;;21.62;28.25;97221.38;4963958;28;1266;-81
2023/04/13 10:43:08;;;;;;;;;;;;;;;21.63;28.17;97220.13;4963083;28;979;-81
2023/04/13 10:45:36;;;;;;;;;;;;;;;21.49;28.56;97212.19;4931339;28;1121;-81
2023/04/13 10:48:01;;;;;;;;;;;;;;;21.75;27.98;97207.91;4947169;28;1212;-80
2023/04/13 10:50:27;;;;;;;;;;;;;;;22.03;27.83;97203.16;4963675;28;1008;-81
2023/04/13 10:53:10;;;;;;;;;;;;;;;22.18;27.51;97214.72;4947589;28;999;-81
2023/04/13 10:55:36;;;;;;;;;;;;;;;21.88;27.87;97212.69;4963590;28;827;-81
2023/04/13 10:58:02;;;;;;;;;;;;;;;21.93;28.15;97206.41;4963265;28;1985;-81
2023/04/13 11:00:29;;;;;;;;;;;;;;;21.70;28.30;97208.50;4960425;28;1173;-81
2023/04/13 11:02:56;;;;;;;;;;;;;;;21.60;28.19;97192.72;4980026;28;1197;-83
2023/04/13 11:05:21;;;;;;;;;;;;;;;21.33;28.66;97201.88;4999700;28;838;-83
2023/04/13 11:07:48;;;;;;;;;;;;;;;21.35;28.83;97196.56;4983449;28;1116;-83
2023/04/13 11:10:14;;;;;;;;;;;;;;;22.34;27.25;97188.94;4963711;28;900;-83
2023/04/13 11:12:47;;;;;;;;;;;;;;;22.26;27.42;97193.31;4947950;28;976;-83
2023/04/13 11:15:18;;;;;;;;;;;;;;;22.03;27.54;97191.03;4963512;28;1069;-82
2023/04/13 11:17:48;;;;;;;;;;;;;;;21.92;28.02;97190.69;4980063;28;1973;-80
2023/04/13 11:20:14;;;;;;;;;;;;;;;21.68;28.08;97181.94;4979514;28;988;-81
2023/04/13 11:22:41;;;;;;;;;;;;;;;21.49;28.74;97175.38;4947732;28;1071;-81
2023/04/13 11:25:07;;;;;;;;;;;;;;;21.93;27.85;97170.38;4947494;28;948;-80
2023/04/13 11:27:33;;;;;;;;;;;;;;;21.90;27.97;97164.84;4947762;28;914;-80
2023/04/13 11:29:59;;;;;;;;;;;;;;;22.07;27.56;97166.16;4947168;28;1145;-81
2023/04/13 11:32:25;;;;;;;;;;;;;;;22.02;27.87;97166.75;4948135;28;944;-81
2023/04/13 11:34:51;;;;;;;;;;;;;;;21.53;28.46;97176.81;4962985;28;1236;-81
2023/04/13 11:37:18;;;;;;;;;;;;;;;21.37;28.76;97173.44;4968564;28;1127;-80
2023/04/13 11:39:43;;;;;;;;;;;;;;;21.42;28.83;97170.00;4962944;28;1918;-81
2023/04/13 11:42:09;;;;;;;;;;;;;;;22.18;27.96;97174.25;4998018;28;847;-81
2023/04/13 11:44:35;;;;;;;;;;;;;;;22.11;27.82;97175.31;5018728;28;831;-79
2023/04/13 11:47:01;;;;;;;;;;;;;;;22.03;28.03;97174.03;5002928;28;1120;-79
2023/04/13 11:49:27;;;;;;;;;;;;;;;22.00;27.84;97175.75;4978360;28;991;-80
2023/04/13 11:51:52;;;;;;;;;;;;;;;21.44;28.59;97173.16;4962837;28;964;-81
2023/04/13 11:54:18;;;;;;;;;;;;;;;21.46;28.78;97179.94;4978545;28;1314;-80
2023/04/13 11:56:43;;;;;;;;;;;;;;;21.41;28.48;97185.41;4961581;28;985;-76
2023/04/13 11:59:09;;;;;;;;;;;;;;;21.62;28.45;97184.56;4977253;28;1969;-76
2023/04/13 12:01:34;;;;;;;;;;;;;;;21.75;28.27;97185.25;4977619;28;968;-77
2023/04/13 12:04:00;;;;;;;;;;;;;;;21.97;28.06;97179.53;4977130;28;994;-75
2023/04/13 12:06:27;;;;;;;;;;;;;;;22.05;27.81;97182.84;4977475;28;1044;-77
2023/04/13 12:08:59;;;;;;;;;;;;;;;21.74;28.34;97178.00;4961170;28;918;-78
2023/04/13 12:11:25;;;;;;;;;;;;;;;21.67;28.32;97174.69;4977721;28;897;-78
2023/04/13 12:13:52;;;;;;;;;;;;;;;21.64;28.15;97169.94;4977473;28;977;-77
2023/04/13 12:16:28;;;;;;;;;;;;;;;21.75;28.28;97176.75;4961562;28;1068;-78
2023/04/13 12:18:53;;;;;;;;;;;;;;;21.48;28.80;97168.16;4976942;28;1898;-77
2023/04/13 12:21:19;;;;;;;;;;;;;;;21.74;28.52;97175.19;4981885;28;1197;-77
2023/04/13 12:23:52;;;;;;;;;;;;;;;21.96;27.94;97174.31;5016934;28;949;-76
2023/04/13 12:26:18;;;;;;;;;;;;;;;21.90;28.08;97176.19;5018887;28;966;-78
2023/04/13 12:28:45;;;;;;;;;;;;;;;21.95;28.08;97178.41;5017158;28;919;-78
2023/04/13 12:31:11;;;;;;;;;;;;;;;21.48;28.49;97170.97;5018265;28;938;-78
2023/04/13 12:33:36;;;;;;;;;;;;;;;21.58;28.30;97169.78;5017859;28;1073;-78
2023/04/13 12:36:04;;;;;;;;;;;;;;;21.67;28.20;97174.69;5018362;28;887;-78
2023/04/13 12:38:30;;;;;;;;;;;;;;;21.60;28.09;97181.41;4976288;28;1974;-78
2023/04/13 12:40:56;;;;;;;;;;;;;;;22.03;27.96;97171.97;4976864;28;985;-77
2023/04/13 12:43:22;;;;;;;;;;;;;;;22.02;27.82;97166.75;4976658;28;1046;-77
2023/04/13 12:45:48;;;;;;;;;;;;;;;22.15;27.65;97163.84;4976869;28;986;-77
2023/04/13 12:48:13;;;;;;;;;;;;;;;21.95;27.63;97150.84;4960421;28;1050;-78
2023/04/13 12:50:39;;;;;;;;;;;;;;;21.83;27.89;97157.44;4960596;28;991;-78
2023/04/13 12:53:05;;;;;;;;;;;;;;;21.63;28.39;97157.84;4976040;28;949;-77
2023/04/13 12:55:30;;;;;;;;;;;;;;;22.12;27.47;97153.44;4977197;28;955;-78
2023/04/13 12:57:56;;;;;;;;;;;;;;;22.09;27.76;97155.94;4976347;28;1949;-79
2023/04/13 13:00:22;;;;;;;;;;;;;;;22.11;27.73;97152.66;4976539;28;1036;-77